Airfield :
LOGIN :

Register | Disclaimer

   EN    FR    IT 

 










Legend :    VFR   Marginal VFR   IFR   Intensive IFR   Very Intensive IFR
Visi :
Ceiling :
>= 8 km
>= 3000ft
5 to 8 km
1000 to 3000 ft
1500m to 5 km
500 to 1000 ft
800 to 1500m
200 to 500 ft
< 800m
< 200 ft
Symbols :   Thunderstorms  Fog  Heavy snow  Heavy precipitations  Wind > 20 kt
SIGMETs :     Misc.  Thunderstorms  Icing  Turbulence  Mountain Waves  Volcanic Ashes







- Airport Elevation : 1260 ft
- IATA code : LDE
- Download approach charts


LFBT - Tarbes / Ossun

CURRENT METAR :
  • 152230Z AUTO 18004KT CAVOK 16/14 Q1018 NOSIG

EXPIRED METARs :
  • 152200Z AUTO VRB03KT CAVOK 16/14 Q1018 NOSIG
  • 152130Z AUTO 19003KT CAVOK 18/15 Q1018 NOSIG
  • 152100Z AUTO 18003KT CAVOK 17/15 Q1018 NOSIG
  • 152030Z AUTO 22003KT CAVOK 18/16 Q1018 NOSIG
  • 152000Z AUTO 20005KT CAVOK 18/16 Q1018 NOSIG

TAF TAF LFBT
Valid from the 15 at 18:00 until the 16 at 18:00 UTC


151700Z 1518/1618 06010KT CAVOK
BECMG 1520/1522 VRB03KT
BECMG 1608/1610 26007KT
BECMG 1613/1615 32010KT BKN030
No reported NOTAMs for that airfield.



MET'MAP, your aeronautical weather chart ! - Copyright ORBIFLY December 2007 - Disclaimer

ORBIFLY MET'MAP TEAM :

Programming & Development : Alexandra Zaïnal
Concept & Development : Baudouin d'Aumeries
Co-Development & Prog : Marc-Olivier Méhu
Technical & hardware support : Manuel Goepfert

Contact : metmap@orbifly.com




SOURCES & CREDITS :

   NOAA